sensor_id;sensor_type;location;lat;lon;timestamp;P1;durP1;ratioP1;P2;durP2;ratioP2
12912;SDS011;6524;51.368;11.984;2022-09-09T04:05:17;4.32;;;2.72;;
12912;SDS011;6524;51.368;11.984;2022-09-09T04:10:17;3.45;;;3.08;;
12912;SDS011;6524;51.368;11.984;2022-09-09T04:15:18;3.58;;;2.70;;
12912;SDS011;6524;51.368;11.984;2022-09-09T04:20:18;3.65;;;2.50;;
12912;SDS011;6524;51.368;11.984;2022-09-09T04:25:19;3.88;;;2.40;;
12912;SDS011;6524;51.368;11.984;2022-09-09T04:30:19;3.35;;;2.50;;
12912;SDS011;6524;51.368;11.984;2022-09-09T04:35:20;5.07;;;2.75;;
12912;SDS011;6524;51.368;11.984;2022-09-09T04:40:20;3.97;;;2.80;;
12912;SDS011;6524;51.368;11.984;2022-09-09T04:45:22;5.30;;;2.88;;
12912;SDS011;6524;51.368;11.984;2022-09-09T04:50:22;3.22;;;2.70;;
12912;SDS011;6524;51.368;11.984;2022-09-09T04:55:22;3.78;;;2.95;;
12912;SDS011;6524;51.368;11.984;2022-09-09T05:00:25;3.95;;;2.58;;
12912;SDS011;6524;51.368;11.984;2022-09-09T05:05:26;2.78;;;2.58;;
12912;SDS011;6524;51.368;11.984;2022-09-09T05:10:26;3.83;;;2.75;;
12912;SDS011;6524;51.368;11.984;2022-09-09T05:15:26;2.78;;;2.53;;
12912;SDS011;6524;51.368;11.984;2022-09-09T05:20:27;5.03;;;2.90;;
12912;SDS011;6524;51.368;11.984;2022-09-09T05:25:28;4.35;;;2.70;;
12912;SDS011;6524;51.368;11.984;2022-09-09T05:30:28;3.47;;;2.80;;
12912;SDS011;6524;51.368;11.984;2022-09-09T05:35:28;3.60;;;2.40;;
12912;SDS011;6524;51.368;11.984;2022-09-09T05:40:30;3.95;;;2.70;;
12912;SDS011;6524;51.368;11.984;2022-09-09T05:45:31;4.15;;;2.53;;
12912;SDS011;6524;51.368;11.984;2022-09-09T05:50:32;2.85;;;2.33;;
12912;SDS011;6524;51.368;11.984;2022-09-09T05:55:32;3.03;;;2.20;;
12912;SDS011;6524;51.368;11.984;2022-09-09T06:00:33;2.83;;;2.50;;
12912;SDS011;6524;51.368;11.984;2022-09-09T06:05:33;2.33;;;2.10;;
12912;SDS011;6524;51.368;11.984;2022-09-09T06:10:35;4.25;;;2.40;;
12912;SDS011;6524;51.368;11.984;2022-09-09T06:15:35;5.03;;;2.20;;
12912;SDS011;6524;51.368;11.984;2022-09-09T06:26:38;3.35;;;2.25;;
12912;SDS011;6524;51.368;11.984;2022-09-09T06:31:42;4.15;;;2.35;;
12912;SDS011;6524;51.368;11.984;2022-09-09T06:36:44;4.10;;;2.60;;
12912;SDS011;6524;51.368;11.984;2022-09-09T06:41:45;3.42;;;2.50;;
12912;SDS011;6524;51.368;11.984;2022-09-09T06:46:47;3.33;;;2.08;;
12912;SDS011;6524;51.368;11.984;2022-09-09T06:51:47;3.72;;;2.30;;
12912;SDS011;6524;51.368;11.984;2022-09-09T06:56:49;2.75;;;1.92;;
12912;SDS011;6524;51.368;11.984;2022-09-09T07:01:49;3.50;;;2.30;;
12912;SDS011;6524;51.368;11.984;2022-09-09T07:06:51;3.58;;;2.28;;
12912;SDS011;6524;51.368;11.984;2022-09-09T07:11:52;4.65;;;2.58;;
12912;SDS011;6524;51.368;11.984;2022-09-09T07:16:53;6.25;;;2.83;;
12912;SDS011;6524;51.368;11.984;2022-09-09T07:21:53;5.13;;;2.77;;
12912;SDS011;6524;51.368;11.984;2022-09-09T07:26:53;3.50;;;2.00;;
12912;SDS011;6524;51.368;11.984;2022-09-09T07:31:54;2.58;;;1.98;;
12912;SDS011;6524;51.368;11.984;2022-09-09T07:36:54;2.85;;;1.88;;
12912;SDS011;6524;51.368;11.984;2022-09-09T07:41:57;4.22;;;2.00;;
12912;SDS011;6524;51.368;11.984;2022-09-09T07:46:58;2.97;;;1.70;;
12912;SDS011;6524;51.368;11.984;2022-09-09T07:51:58;3.17;;;1.73;;
12912;SDS011;6524;51.368;11.984;2022-09-09T07:56:59;4.78;;;1.90;;
12912;SDS011;6524;51.368;11.984;2022-09-09T08:01:59;2.60;;;1.63;;
12912;SDS011;6524;51.368;11.984;2022-09-09T08:07:00;3.83;;;1.85;;
12912;SDS011;6524;51.368;11.984;2022-09-09T08:12:01;2.83;;;1.90;;
12912;SDS011;6524;51.368;11.984;2022-09-09T08:17:01;2.42;;;1.70;;
12912;SDS011;6524;51.368;11.984;2022-09-09T08:22:02;3.78;;;2.03;;
12912;SDS011;6524;51.368;11.984;2022-09-09T08:27:03;2.38;;;1.70;;
12912;SDS011;6524;51.368;11.984;2022-09-09T08:32:03;3.00;;;1.63;;
12912;SDS011;6524;51.368;11.984;2022-09-09T08:37:04;4.15;;;1.95;;
12912;SDS011;6524;51.368;11.984;2022-09-09T08:57:56;3.40;;;2.05;;
12912;SDS011;6524;51.368;11.984;2022-09-09T09:03:15;3.63;;;1.80;;
12912;SDS011;6524;51.368;11.984;2022-09-09T09:08:30;3.55;;;1.77;;
12912;SDS011;6524;51.368;11.984;2022-09-09T09:13:50;3.20;;;1.80;;
12912;SDS011;6524;51.368;11.984;2022-09-09T09:18:56;4.05;;;1.90;;
12912;SDS011;6524;51.368;11.984;2022-09-09T09:23:57;2.42;;;1.70;;
12912;SDS011;6524;51.368;11.984;2022-09-09T09:28:59;2.78;;;1.90;;
12912;SDS011;6524;51.368;11.984;2022-09-09T09:34:09;3.95;;;1.70;;
12912;SDS011;6524;51.368;11.984;2022-09-09T09:39:22;3.00;;;1.70;;
12912;SDS011;6524;51.368;11.984;2022-09-09T09:49:27;2.45;;;1.73;;
12912;SDS011;6524;51.368;11.984;2022-09-09T09:54:28;3.20;;;1.75;;
12912;SDS011;6524;51.368;11.984;2022-09-09T09:59:34;3.33;;;1.83;;
12912;SDS011;6524;51.368;11.984;2022-09-09T10:04:35;3.00;;;1.83;;
12912;SDS011;6524;51.368;11.984;2022-09-09T10:09:36;2.60;;;1.80;;
12912;SDS011;6524;51.368;11.984;2022-09-09T10:14:47;3.75;;;1.70;;
12912;SDS011;6524;51.368;11.984;2022-09-09T10:30:23;4.47;;;1.98;;
12912;SDS011;6524;51.368;11.984;2022-09-09T10:35:35;3.25;;;2.10;;
12912;SDS011;6524;51.368;11.984;2022-09-09T10:45:59;3.33;;;1.50;;
12912;SDS011;6524;51.368;11.984;2022-09-09T10:56:20;2.83;;;1.70;;
12912;SDS011;6524;51.368;11.984;2022-09-09T11:01:28;2.38;;;1.60;;
12912;SDS011;6524;51.368;11.984;2022-09-09T11:06:37;2.20;;;1.60;;
12912;SDS011;6524;51.368;11.984;2022-09-09T11:12:03;2.88;;;1.55;;
12912;SDS011;6524;51.368;11.984;2022-09-09T11:17:04;2.95;;;1.80;;
12912;SDS011;6524;51.368;11.984;2022-09-09T11:22:27;5.43;;;1.70;;
12912;SDS011;6524;51.368;11.984;2022-09-09T11:38:06;3.80;;;1.63;;
12912;SDS011;6524;51.368;11.984;2022-09-09T11:43:24;2.00;;;1.40;;
12912;SDS011;6524;51.368;11.984;2022-09-09T11:48:29;2.15;;;1.52;;
12912;SDS011;6524;51.368;11.984;2022-09-09T11:53:52;3.60;;;1.85;;
12912;SDS011;6524;51.368;11.984;2022-09-09T11:59:02;4.32;;;1.67;;
12912;SDS011;6524;51.368;11.984;2022-09-09T12:09:27;3.38;;;1.92;;
12912;SDS011;6524;51.368;11.984;2022-09-09T12:19:41;4.25;;;1.90;;
12912;SDS011;6524;51.368;11.984;2022-09-09T12:24:49;2.83;;;1.60;;
12912;SDS011;6524;51.368;11.984;2022-09-09T12:30:00;2.97;;;1.95;;
12912;SDS011;6524;51.368;11.984;2022-09-09T12:35:18;3.17;;;1.80;;
12912;SDS011;6524;51.368;11.984;2022-09-09T12:45:30;2.85;;;1.52;;
12912;SDS011;6524;51.368;11.984;2022-09-09T12:50:36;3.08;;;1.70;;
12912;SDS011;6524;51.368;11.984;2022-09-09T12:55:39;2.40;;;1.50;;
12912;SDS011;6524;51.368;11.984;2022-09-09T13:00:50;3.55;;;1.90;;
12912;SDS011;6524;51.368;11.984;2022-09-09T13:05:52;1.75;;;1.27;;
12912;SDS011;6524;51.368;11.984;2022-09-09T13:10:57;1.77;;;1.30;;
12912;SDS011;6524;51.368;11.984;2022-09-09T13:16:06;2.95;;;1.70;;
12912;SDS011;6524;51.368;11.984;2022-09-09T13:21:18;3.00;;;1.90;;
12912;SDS011;6524;51.368;11.984;2022-09-09T13:31:23;2.83;;;1.60;;
12912;SDS011;6524;51.368;11.984;2022-09-09T13:36:33;3.10;;;1.52;;
12912;SDS011;6524;51.368;11.984;2022-09-09T13:41:35;2.55;;;1.38;;
12912;SDS011;6524;51.368;11.984;2022-09-09T13:46:41;2.42;;;1.40;;
12912;SDS011;6524;51.368;11.984;2022-09-09T13:51:46;2.38;;;1.40;;
12912;SDS011;6524;51.368;11.984;2022-09-09T13:56:50;2.00;;;1.45;;
12912;SDS011;6524;51.368;11.984;2022-09-09T14:01:50;2.53;;;1.48;;
12912;SDS011;6524;51.368;11.984;2022-09-09T14:06:52;2.28;;;1.42;;
12912;SDS011;6524;51.368;11.984;2022-09-09T14:11:53;2.85;;;1.40;;
12912;SDS011;6524;51.368;11.984;2022-09-09T14:16:55;2.13;;;1.40;;
12912;SDS011;6524;51.368;11.984;2022-09-09T14:21:55;2.80;;;1.50;;
12912;SDS011;6524;51.368;11.984;2022-09-09T14:26:56;2.65;;;1.30;;
12912;SDS011;6524;51.368;11.984;2022-09-09T14:31:56;1.67;;;1.20;;
12912;SDS011;6524;51.368;11.984;2022-09-09T14:36:56;1.88;;;1.15;;
12912;SDS011;6524;51.368;11.984;2022-09-09T14:41:56;1.50;;;1.20;;
12912;SDS011;6524;51.368;11.984;2022-09-09T14:46:58;3.33;;;1.48;;
12912;SDS011;6524;51.368;11.984;2022-09-09T14:51:59;1.55;;;1.20;;
12912;SDS011;6524;51.368;11.984;2022-09-09T14:56:59;2.17;;;1.40;;
12912;SDS011;6524;51.368;11.984;2022-09-09T15:01:59;1.47;;;1.23;;
12912;SDS011;6524;51.368;11.984;2022-09-09T15:07:03;2.00;;;1.48;;
12912;SDS011;6524;51.368;11.984;2022-09-09T15:12:04;2.73;;;1.10;;
12912;SDS011;6524;51.368;11.984;2022-09-09T15:17:04;3.63;;;1.70;;
12912;SDS011;6524;51.368;11.984;2022-09-09T15:22:05;3.42;;;1.80;;
12912;SDS011;6524;51.368;11.984;2022-09-09T15:27:05;2.90;;;1.70;;
12912;SDS011;6524;51.368;11.984;2022-09-09T15:32:06;2.40;;;1.60;;
12912;SDS011;6524;51.368;11.984;2022-09-09T15:37:06;4.13;;;1.60;;
12912;SDS011;6524;51.368;11.984;2022-09-09T15:42:11;2.83;;;1.90;;
12912;SDS011;6524;51.368;11.984;2022-09-09T15:47:11;2.00;;;1.50;;
12912;SDS011;6524;51.368;11.984;2022-09-09T15:52:13;2.08;;;1.42;;
12912;SDS011;6524;51.368;11.984;2022-09-09T15:57:13;2.40;;;1.42;;
12912;SDS011;6524;51.368;11.984;2022-09-09T16:02:13;4.22;;;1.60;;
12912;SDS011;6524;51.368;11.984;2022-09-09T16:07:14;2.55;;;1.70;;
12912;SDS011;6524;51.368;11.984;2022-09-09T16:12:14;3.58;;;1.73;;
12912;SDS011;6524;51.368;11.984;2022-09-09T16:17:14;3.60;;;1.90;;
12912;SDS011;6524;51.368;11.984;2022-09-09T16:22:15;2.85;;;1.75;;
12912;SDS011;6524;51.368;11.984;2022-09-09T16:27:16;2.88;;;1.45;;
12912;SDS011;6524;51.368;11.984;2022-09-09T16:32:16;1.97;;;1.40;;
12912;SDS011;6524;51.368;11.984;2022-09-09T16:37:17;3.25;;;1.73;;
12912;SDS011;6524;51.368;11.984;2022-09-09T16:42:23;1.98;;;1.60;;
12912;SDS011;6524;51.368;11.984;2022-09-09T16:47:27;2.88;;;1.90;;
12912;SDS011;6524;51.368;11.984;2022-09-09T16:52:30;2.87;;;2.10;;
12912;SDS011;6524;51.368;11.984;2022-09-09T16:57:31;2.13;;;1.60;;
12912;SDS011;6524;51.368;11.984;2022-09-09T17:02:32;2.92;;;1.70;;
12912;SDS011;6524;51.368;11.984;2022-09-09T17:07:33;1.70;;;1.50;;
12912;SDS011;6524;51.368;11.984;2022-09-09T17:12:34;2.38;;;1.48;;
12912;SDS011;6524;51.368;11.984;2022-09-09T17:23:04;4.75;;;2.85;;
12912;SDS011;6524;51.368;11.984;2022-09-09T17:28:04;3.20;;;1.80;;
12912;SDS011;6524;51.368;11.984;2022-09-09T17:33:04;2.27;;;1.70;;
12912;SDS011;6524;51.368;11.984;2022-09-09T17:38:06;3.05;;;1.90;;
12912;SDS011;6524;51.368;11.984;2022-09-09T17:43:08;1.77;;;1.20;;
12912;SDS011;6524;51.368;11.984;2022-09-09T17:48:09;2.80;;;1.50;;
12912;SDS011;6524;51.368;11.984;2022-09-09T17:53:09;2.88;;;1.60;;
12912;SDS011;6524;51.368;11.984;2022-09-09T17:58:10;2.00;;;1.60;;
12912;SDS011;6524;51.368;11.984;2022-09-09T18:03:10;3.13;;;1.95;;
12912;SDS011;6524;51.368;11.984;2022-09-09T18:08:11;2.95;;;1.80;;
12912;SDS011;6524;51.368;11.984;2022-09-09T18:13:11;2.50;;;1.52;;
12912;SDS011;6524;51.368;11.984;2022-09-09T18:18:12;3.45;;;1.85;;
12912;SDS011;6524;51.368;11.984;2022-09-09T18:23:13;2.75;;;1.58;;
12912;SDS011;6524;51.368;11.984;2022-09-09T18:28:13;3.22;;;2.25;;
12912;SDS011;6524;51.368;11.984;2022-09-09T18:33:13;3.88;;;2.25;;
12912;SDS011;6524;51.368;11.984;2022-09-09T18:38:14;4.93;;;2.22;;
12912;SDS011;6524;51.368;11.984;2022-09-09T18:43:16;2.95;;;2.00;;
12912;SDS011;6524;51.368;11.984;2022-09-09T18:48:17;3.83;;;2.47;;
12912;SDS011;6524;51.368;11.984;2022-09-09T18:53:18;5.22;;;3.10;;
12912;SDS011;6524;51.368;11.984;2022-09-09T18:58:18;3.80;;;3.50;;
12912;SDS011;6524;51.368;11.984;2022-09-09T19:03:19;5.80;;;2.95;;
12912;SDS011;6524;51.368;11.984;2022-09-09T19:08:19;3.50;;;3.20;;
12912;SDS011;6524;51.368;11.984;2022-09-09T19:13:20;3.67;;;3.05;;
12912;SDS011;6524;51.368;11.984;2022-09-09T19:18:20;3.28;;;2.40;;
12912;SDS011;6524;51.368;11.984;2022-09-09T19:23:21;4.28;;;3.20;;
12912;SDS011;6524;51.368;11.984;2022-09-09T19:28:28;2.67;;;2.00;;
12912;SDS011;6524;51.368;11.984;2022-09-09T19:33:30;3.35;;;1.95;;
12912;SDS011;6524;51.368;11.984;2022-09-09T19:38:32;2.25;;;1.77;;
12912;SDS011;6524;51.368;11.984;2022-09-09T19:43:36;4.70;;;2.40;;
12912;SDS011;6524;51.368;11.984;2022-09-09T19:48:37;3.90;;;2.40;;
12912;SDS011;6524;51.368;11.984;2022-09-09T19:53:40;3.30;;;2.20;;
12912;SDS011;6524;51.368;11.984;2022-09-09T19:58:43;2.58;;;2.10;;
12912;SDS011;6524;51.368;11.984;2022-09-09T20:03:46;3.35;;;2.35;;
12912;SDS011;6524;51.368;11.984;2022-09-09T20:08:51;3.22;;;2.05;;
12912;SDS011;6524;51.368;11.984;2022-09-09T20:13:53;5.28;;;3.67;;
12912;SDS011;6524;51.368;11.984;2022-09-09T20:18:58;2.70;;;2.10;;
12912;SDS011;6524;51.368;11.984;2022-09-09T20:24:06;4.72;;;2.63;;
12912;SDS011;6524;51.368;11.984;2022-09-09T20:29:12;3.35;;;2.28;;
12912;SDS011;6524;51.368;11.984;2022-09-09T20:34:15;3.67;;;2.25;;
12912;SDS011;6524;51.368;11.984;2022-09-09T20:39:21;4.40;;;2.13;;
12912;SDS011;6524;51.368;11.984;2022-09-09T20:44:24;2.40;;;1.92;;
12912;SDS011;6524;51.368;11.984;2022-09-09T20:49:25;2.40;;;1.70;;
12912;SDS011;6524;51.368;11.984;2022-09-09T20:54:26;2.25;;;1.90;;
12912;SDS011;6524;51.368;11.984;2022-09-09T20:59:29;5.60;;;3.40;;
12912;SDS011;6524;51.368;11.984;2022-09-09T21:04:30;2.85;;;1.90;;
12912;SDS011;6524;51.368;11.984;2022-09-09T21:09:30;3.90;;;1.90;;
12912;SDS011;6524;51.368;11.984;2022-09-09T21:14:31;3.03;;;2.00;;
12912;SDS011;6524;51.368;11.984;2022-09-09T21:19:32;2.40;;;2.15;;
12912;SDS011;6524;51.368;11.984;2022-09-09T21:24:32;3.13;;;1.67;;
12912;SDS011;6524;51.368;11.984;2022-09-09T21:29:32;2.88;;;1.70;;
12912;SDS011;6524;51.368;11.984;2022-09-09T21:34:33;4.20;;;3.25;;
12912;SDS011;6524;51.368;11.984;2022-09-09T21:39:36;2.25;;;1.95;;
12912;SDS011;6524;51.368;11.984;2022-09-09T21:44:37;2.20;;;1.65;;
12912;SDS011;6524;51.368;11.984;2022-09-09T21:49:37;2.45;;;1.88;;
12912;SDS011;6524;51.368;11.984;2022-09-09T21:54:37;3.47;;;1.98;;
12912;SDS011;6524;51.368;11.984;2022-09-09T21:59:41;3.20;;;1.63;;
12912;SDS011;6524;51.368;11.984;2022-09-09T22:04:41;3.30;;;2.10;;
12912;SDS011;6524;51.368;11.984;2022-09-09T22:09:42;3.22;;;2.05;;
12912;SDS011;6524;51.368;11.984;2022-09-09T22:14:42;2.42;;;2.10;;
12912;SDS011;6524;51.368;11.984;2022-09-09T22:19:42;2.92;;;1.83;;
12912;SDS011;6524;51.368;11.984;2022-09-09T22:24:43;3.03;;;1.80;;
12912;SDS011;6524;51.368;11.984;2022-09-09T22:29:44;2.42;;;1.80;;
12912;SDS011;6524;51.368;11.984;2022-09-09T22:34:44;2.70;;;1.92;;
12912;SDS011;6524;51.368;11.984;2022-09-09T22:39:45;2.42;;;1.80;;
12912;SDS011;6524;51.368;11.984;2022-09-09T22:44:48;3.75;;;2.10;;
12912;SDS011;6524;51.368;11.984;2022-09-09T22:49:48;2.45;;;2.00;;
12912;SDS011;6524;51.368;11.984;2022-09-09T22:54:48;3.95;;;1.83;;
12912;SDS011;6524;51.368;11.984;2022-09-09T22:59:49;2.50;;;1.70;;
12912;SDS011;6524;51.368;11.984;2022-09-09T23:04:49;3.47;;;1.77;;
12912;SDS011;6524;51.368;11.984;2022-09-09T23:09:50;3.00;;;1.90;;
12912;SDS011;6524;51.368;11.984;2022-09-09T23:14:50;3.15;;;2.10;;
12912;SDS011;6524;51.368;11.984;2022-09-09T23:19:51;1.90;;;1.70;;
12912;SDS011;6524;51.368;11.984;2022-09-09T23:24:54;3.20;;;1.90;;
12912;SDS011;6524;51.368;11.984;2022-09-09T23:29:57;2.28;;;1.65;;
12912;SDS011;6524;51.368;11.984;2022-09-09T23:35:06;2.28;;;1.70;;
12912;SDS011;6524;51.368;11.984;2022-09-09T23:40:07;1.83;;;1.60;;
12912;SDS011;6524;51.368;11.984;2022-09-09T23:45:11;2.50;;;1.73;;
12912;SDS011;6524;51.368;11.984;2022-09-09T23:50:11;3.38;;;2.80;;
12912;SDS011;6524;51.368;11.984;2022-09-09T23:55:12;6.55;;;4.05;;
